Airport Name : Maya Maya

Other Name : Brazzaville

ICAO : FCBB

IATA : BZV

FAA :

Latitude : -4.2517

Longitude : 15.253031

Country : Republic of the Congo

Local Date and Time : 5/25/2018 11:55:00 AM

 

TAF (Terminal Aerodrome Forecast)

TAF FCBB 250500Z 2506/2612 23004KT 8000 SCT018 BECMG 2509/2511 SCT020 FEW030CB PROB30 2512/2515 TS BECMG 2516/2518 SCT016

 

METAR (METeorological Aerodrome Report)

FCBB 251000Z 20003KT 170V260 9999 SCT013 BKN020 25/21 Q1013 NOSIG

FCBB 250900Z 26005KT 620V300 9999 SCT013 BKN020 24/21 Q1014 NOSIG

FCBB 250800Z 27004KT 9000 SCT012 BKN020 24/21 Q1014 NOSIG

FCBB 250700Z 22004KT 9000 FEW010 BKN020 24/21 Q1013 NOSIG